createdAt,value
2023-01-31T00:01:37.521Z,4.70
2023-01-31T00:04:11.919Z,4.70
2023-01-31T00:06:44.693Z,4.70
2023-01-31T00:09:13.172Z,4.70
2023-01-31T00:11:40.178Z,4.70
2023-01-31T00:14:07.849Z,4.70
2023-01-31T00:16:35.075Z,4.70
2023-01-31T00:19:02.563Z,4.70
2023-01-31T00:21:31.300Z,4.70
2023-01-31T00:24:00.055Z,4.80
2023-01-31T00:26:34.983Z,4.80
2023-01-31T00:29:03.655Z,4.70
2023-01-31T00:31:32.426Z,4.70
2023-01-31T00:33:59.893Z,4.70
2023-01-31T00:36:31.814Z,4.70
2023-01-31T00:39:00.434Z,4.70
2023-01-31T00:41:29.868Z,4.70
2023-01-31T00:43:57.611Z,4.70
2023-01-31T00:46:24.684Z,4.70
2023-01-31T00:48:52.300Z,4.70
2023-01-31T00:51:19.844Z,4.70
2023-01-31T00:53:47.240Z,4.70
2023-01-31T00:56:17.817Z,4.60
2023-01-31T00:58:44.880Z,4.50
2023-01-31T01:01:13.429Z,4.50
2023-01-31T01:03:41.841Z,4.50
2023-01-31T01:06:09.551Z,4.50
2023-01-31T01:08:37.795Z,4.40
2023-01-31T01:11:09.465Z,4.40
2023-01-31T01:13:36.790Z,4.40
2023-01-31T01:16:12.077Z,4.40
2023-01-31T01:18:39.264Z,4.40
2023-01-31T01:21:11.445Z,4.30
2023-01-31T01:23:39.349Z,4.30
2023-01-31T01:26:12.601Z,4.30
2023-01-31T01:28:39.402Z,4.30
2023-01-31T01:31:08.160Z,4.20
2023-01-31T01:33:36.337Z,4.20
2023-01-31T01:36:09.755Z,4.20
2023-01-31T01:38:37.920Z,4.10
2023-01-31T01:41:05.632Z,4.10
2023-01-31T01:43:51.494Z,4.10
2023-01-31T01:46:30.473Z,4.10
2023-01-31T02:55:33.231Z,4.10
2023-01-31T02:58:02.312Z,4.00
2023-01-31T03:00:32.210Z,4.00
2023-01-31T03:02:58.997Z,4.00
2023-01-31T03:05:26.389Z,4.00
2023-01-31T03:07:59.889Z,4.00
2023-01-31T03:10:38.697Z,4.10
2023-01-31T03:13:20.747Z,4.00
2023-01-31T03:16:42.874Z,4.10
2023-01-31T03:19:34.454Z,4.10
2023-01-31T03:22:07.858Z,4.10
2023-01-31T03:24:35.339Z,4.20
2023-01-31T03:27:02.825Z,4.20
2023-01-31T03:29:35.025Z,4.20
2023-01-31T03:32:08.993Z,4.20
2023-01-31T03:34:36.240Z,4.00
2023-01-31T03:37:15.545Z,4.10
2023-01-31T03:40:04.708Z,4.00
2023-01-31T03:42:45.142Z,4.00
2023-01-31T03:45:29.385Z,4.00
2023-01-31T03:47:59.390Z,3.90
2023-01-31T03:50:32.361Z,4.00
2023-01-31T03:53:18.258Z,4.00
2023-01-31T03:56:02.629Z,3.90
2023-01-31T03:58:32.815Z,3.90
2023-01-31T04:01:02.484Z,4.00
2023-01-31T04:03:50.911Z,3.90
2023-01-31T04:06:17.767Z,3.90
2023-01-31T04:08:44.683Z,3.90
2023-01-31T04:11:14.161Z,3.90
2023-01-31T04:13:42.501Z,3.80
2023-01-31T04:16:09.381Z,3.80
2023-01-31T04:18:38.065Z,3.80
2023-01-31T04:21:05.792Z,3.80
2023-01-31T04:23:33.261Z,3.90
2023-01-31T04:26:00.148Z,3.90
2023-01-31T04:28:26.995Z,3.90
2023-01-31T04:30:54.628Z,3.90
2023-01-31T04:33:21.971Z,3.90
2023-01-31T04:35:50.419Z,3.90
2023-01-31T04:38:17.237Z,3.90
2023-01-31T04:40:44.091Z,4.00
2023-01-31T04:43:10.920Z,4.00
2023-01-31T04:45:37.696Z,4.00
2023-01-31T04:48:04.815Z,4.00
2023-01-31T04:50:31.787Z,4.00
2023-01-31T04:52:58.638Z,4.00
2023-01-31T04:55:26.888Z,4.00
2023-01-31T04:57:54.085Z,4.00
2023-01-31T05:00:21.100Z,4.10
2023-01-31T05:02:48.109Z,4.10
2023-01-31T05:05:14.976Z,4.00
2023-01-31T05:07:42.937Z,4.00
2023-01-31T05:10:10.834Z,4.10
2023-01-31T05:12:37.664Z,4.10
2023-01-31T05:15:07.378Z,4.20
2023-01-31T05:17:34.971Z,4.10
2023-01-31T05:20:01.895Z,4.20
2023-01-31T05:22:28.650Z,4.20
2023-01-31T05:24:57.633Z,4.20
2023-01-31T05:27:25.557Z,4.20
2023-01-31T05:29:52.877Z,4.10
2023-01-31T05:32:19.946Z,4.00
2023-01-31T05:34:46.807Z,4.10
2023-01-31T05:37:13.644Z,4.10
2023-01-31T05:39:40.551Z,4.10
2023-01-31T05:42:07.344Z,4.10
2023-01-31T05:44:34.213Z,4.00
2023-01-31T05:47:04.560Z,4.10
2023-01-31T05:49:33.526Z,4.10
2023-01-31T05:52:01.109Z,4.10
2023-01-31T05:54:28.149Z,4.10
2023-01-31T05:56:54.980Z,4.10
2023-01-31T05:59:21.992Z,4.10
2023-01-31T06:01:48.962Z,4.10
2023-01-31T06:04:15.916Z,4.20
2023-01-31T06:06:42.976Z,4.20
2023-01-31T06:09:09.810Z,4.20
2023-01-31T06:11:36.595Z,4.30
2023-01-31T06:14:03.595Z,4.30
2023-01-31T06:16:30.844Z,4.30
2023-01-31T06:18:57.839Z,4.30
2023-01-31T06:21:24.697Z,4.30
2023-01-31T06:23:51.474Z,4.30
2023-01-31T06:26:18.329Z,4.40
2023-01-31T06:28:46.326Z,4.40
2023-01-31T06:31:13.556Z,4.40
2023-01-31T06:33:46.967Z,4.50
2023-01-31T06:36:18.662Z,4.40
2023-01-31T06:38:49.881Z,4.40
2023-01-31T06:41:16.713Z,4.40
2023-01-31T06:43:43.466Z,4.40
2023-01-31T06:46:10.377Z,4.40
2023-01-31T06:48:37.182Z,4.50
2023-01-31T06:51:04.152Z,4.50
2023-01-31T06:53:31.412Z,4.60
2023-01-31T06:55:58.320Z,4.60
2023-01-31T06:58:25.175Z,4.60
2023-01-31T07:00:52.033Z,4.60
2023-01-31T07:03:19.485Z,4.70
2023-01-31T07:05:46.706Z,4.70
2023-01-31T07:08:14.646Z,4.70
2023-01-31T07:10:41.668Z,4.80
2023-01-31T07:13:08.520Z,4.80
2023-01-31T07:15:35.507Z,4.80
2023-01-31T07:18:14.814Z,4.80
2023-01-31T07:20:44.837Z,4.80
2023-01-31T07:23:35.203Z,4.80
2023-01-31T07:26:04.609Z,4.80
2023-01-31T07:28:32.267Z,5.00
2023-01-31T07:31:11.735Z,5.20
2023-01-31T07:33:53.979Z,5.30
2023-01-31T07:36:29.927Z,5.40
2023-01-31T07:39:03.604Z,5.50
2023-01-31T07:41:44.720Z,5.40
2023-01-31T07:44:20.396Z,5.20
2023-01-31T07:46:54.750Z,5.20
2023-01-31T07:49:24.308Z,5.20
2023-01-31T07:51:56.079Z,5.20
2023-01-31T07:54:32.091Z,5.20
2023-01-31T07:56:59.007Z,5.20
2023-01-31T07:59:25.772Z,5.20
2023-01-31T08:02:11.228Z,5.20
2023-01-31T08:04:38.253Z,5.20
2023-01-31T08:07:06.960Z,5.20
2023-01-31T08:09:34.105Z,5.20
2023-01-31T08:12:00.863Z,5.20
2023-01-31T08:14:32.968Z,5.20
2023-01-31T08:16:59.946Z,5.20
2023-01-31T08:19:26.918Z,5.20
2023-01-31T08:22:12.555Z,5.10
2023-01-31T08:24:39.506Z,5.10
2023-01-31T08:27:06.322Z,5.10
2023-01-31T08:29:33.335Z,5.10
2023-01-31T08:32:00.762Z,5.00
2023-01-31T08:34:28.007Z,5.00
2023-01-31T08:36:55.244Z,5.00
2023-01-31T08:39:22.061Z,4.90
2023-01-31T08:41:48.903Z,4.90
2023-01-31T08:44:15.831Z,4.90
2023-01-31T08:46:42.780Z,4.90
2023-01-31T08:49:11.586Z,4.90
2023-01-31T08:51:38.453Z,4.90
2023-01-31T08:54:05.365Z,4.90
2023-01-31T08:56:32.568Z,4.90
2023-01-31T08:59:00.717Z,4.90
2023-01-31T09:01:27.850Z,4.90
2023-01-31T09:03:57.351Z,4.90
2023-01-31T09:06:27.037Z,5.00
2023-01-31T09:08:55.867Z,5.00
2023-01-31T09:11:22.605Z,5.00
2023-01-31T09:13:51.668Z,5.00
2023-01-31T09:16:19.790Z,5.10
2023-01-31T09:18:47.264Z,5.10
2023-01-31T09:21:17.704Z,5.10
2023-01-31T09:23:45.380Z,5.20
2023-01-31T09:26:12.941Z,5.20
2023-01-31T09:28:42.792Z,5.30
2023-01-31T09:31:15.616Z,5.30
2023-01-31T09:33:46.867Z,5.40
2023-01-31T09:36:19.210Z,5.40
2023-01-31T09:38:46.391Z,5.40
2023-01-31T09:41:33.898Z,5.40
2023-01-31T09:44:19.543Z,5.50
2023-01-31T09:47:06.630Z,5.50
2023-01-31T09:49:44.328Z,5.50
2023-01-31T09:52:11.951Z,5.50
2023-01-31T09:54:40.876Z,5.50
2023-01-31T09:57:26.562Z,5.50
2023-01-31T09:59:59.260Z,5.60
2023-01-31T10:02:28.817Z,5.60
2023-01-31T10:05:11.547Z,5.50
2023-01-31T10:08:17.749Z,5.40
2023-01-31T10:10:58.494Z,5.40
2023-01-31T10:13:36.871Z,5.50
2023-01-31T10:16:12.322Z,5.60
2023-01-31T10:18:43.235Z,5.60
2023-01-31T10:21:15.236Z,5.70
2023-01-31T10:23:56.248Z,5.60
2023-01-31T10:26:29.249Z,5.70
2023-01-31T10:29:10.200Z,5.70
2023-01-31T10:32:04.799Z,5.80
2023-01-31T10:34:43.089Z,5.80
2023-01-31T10:37:57.448Z,5.90
2023-01-31T10:40:33.134Z,5.90
2023-01-31T10:43:12.330Z,6.00
2023-01-31T10:45:39.130Z,6.00
2023-01-31T10:48:16.812Z,6.10
2023-01-31T10:51:06.178Z,6.10
2023-01-31T10:54:04.861Z,6.10
2023-01-31T10:56:45.668Z,6.10
2023-01-31T10:59:18.245Z,6.10
2023-01-31T11:01:45.298Z,6.10
2023-01-31T11:04:24.290Z,6.10
2023-01-31T11:06:51.845Z,6.10
2023-01-31T11:09:45.948Z,6.10
2023-01-31T11:12:12.815Z,6.10
2023-01-31T11:14:39.661Z,6.20
2023-01-31T11:17:15.506Z,6.20
2023-01-31T11:19:51.361Z,6.20
2023-01-31T11:22:28.633Z,6.20
2023-01-31T11:24:57.351Z,6.20
2023-01-31T11:27:44.150Z,6.20
2023-01-31T11:30:51.623Z,6.20
2023-01-31T11:34:10.993Z,6.20
2023-01-31T11:36:47.844Z,6.30
2023-01-31T11:39:32.022Z,6.30
2023-01-31T11:42:16.060Z,6.30
2023-01-31T11:45:02.902Z,6.30
2023-01-31T11:47:52.875Z,6.30
2023-01-31T11:50:28.173Z,6.40
2023-01-31T11:52:58.476Z,6.40
2023-01-31T11:55:25.994Z,6.50
2023-01-31T11:57:59.460Z,6.40
2023-01-31T12:00:30.168Z,6.40
2023-01-31T12:03:08.976Z,6.40
2023-01-31T12:05:40.543Z,6.40
2023-01-31T12:08:27.857Z,6.40
2023-01-31T12:10:59.573Z,6.50
2023-01-31T12:13:28.870Z,6.50
2023-01-31T12:16:05.186Z,6.50
2023-01-31T12:18:44.499Z,6.50
2023-01-31T12:21:27.556Z,6.50
2023-01-31T12:24:00.140Z,6.50
2023-01-31T12:26:48.443Z,6.50
2023-01-31T12:29:25.711Z,6.50
2023-01-31T12:32:01.183Z,6.50
2023-01-31T12:35:00.709Z,6.50
2023-01-31T12:37:51.276Z,6.50
2023-01-31T12:40:36.928Z,6.50
2023-01-31T12:43:13.892Z,6.60
2023-01-31T12:46:11.460Z,6.60
2023-01-31T12:48:48.508Z,6.60
2023-01-31T12:51:33.235Z,6.60
2023-01-31T12:54:06.968Z,6.60
2023-01-31T12:56:51.442Z,6.70
2023-01-31T12:59:56.314Z,6.70
2023-01-31T13:03:01.147Z,6.70
2023-01-31T13:05:30.929Z,6.70
2023-01-31T13:08:17.555Z,6.80
2023-01-31T13:10:46.078Z,6.80
2023-01-31T13:13:32.062Z,6.70
2023-01-31T13:16:13.899Z,6.60
2023-01-31T13:18:43.226Z,6.60
2023-01-31T13:21:16.365Z,6.60
2023-01-31T13:23:52.374Z,6.60
2023-01-31T13:26:36.146Z,6.50
2023-01-31T13:29:43.632Z,6.50
2023-01-31T13:32:18.972Z,6.50
2023-01-31T13:35:07.672Z,6.50
2023-01-31T13:37:39.799Z,6.50
2023-01-31T13:40:24.947Z,6.50
2023-01-31T13:42:53.487Z,6.40
2023-01-31T13:45:25.903Z,6.40
2023-01-31T13:48:07.533Z,6.40
2023-01-31T13:50:47.103Z,6.40
2023-01-31T13:53:21.850Z,6.40
2023-01-31T13:55:50.588Z,6.40
2023-01-31T13:58:22.454Z,6.40
2023-01-31T14:00:59.231Z,6.40
2023-01-31T14:03:26.558Z,6.30
2023-01-31T14:05:54.538Z,6.40
2023-01-31T14:08:39.261Z,6.40
2023-01-31T14:11:15.502Z,6.40
2023-01-31T14:13:53.634Z,6.40
2023-01-31T14:16:43.768Z,6.40
2023-01-31T14:19:19.715Z,6.40
2023-01-31T14:22:13.933Z,6.40
2023-01-31T14:24:57.102Z,6.40
2023-01-31T14:27:29.248Z,6.40
2023-01-31T14:30:05.559Z,6.40
2023-01-31T14:32:45.467Z,6.40
2023-01-31T14:35:14.987Z,6.40
2023-01-31T14:38:17.048Z,6.40
2023-01-31T14:41:07.689Z,6.50
2023-01-31T14:43:42.274Z,6.50
2023-01-31T14:46:35.304Z,6.50
2023-01-31T14:49:26.656Z,6.50
2023-01-31T14:52:18.469Z,6.50
2023-01-31T14:54:57.437Z,6.50
2023-01-31T14:57:31.152Z,6.50
2023-01-31T15:00:06.793Z,6.60
2023-01-31T15:02:36.749Z,6.60
2023-01-31T15:05:09.193Z,6.60
2023-01-31T15:07:40.542Z,6.60
2023-01-31T15:10:45.857Z,6.70
2023-01-31T15:13:48.277Z,6.70
2023-01-31T15:16:20.703Z,6.70
2023-01-31T15:19:05.563Z,6.70
2023-01-31T15:21:47.657Z,6.80
2023-01-31T15:24:43.396Z,6.80
2023-01-31T15:27:24.562Z,6.80
2023-01-31T15:30:16.184Z,6.80
2023-01-31T15:33:02.437Z,6.80
2023-01-31T15:35:36.633Z,6.80
2023-01-31T15:38:26.862Z,6.90
2023-01-31T15:41:12.463Z,6.90
2023-01-31T15:43:39.688Z,6.90
2023-01-31T15:46:30.771Z,6.90
2023-01-31T15:48:59.137Z,7.00
2023-01-31T15:51:27.074Z,7.00
2023-01-31T15:54:08.404Z,7.00
2023-01-31T15:56:40.594Z,7.00
2023-01-31T15:59:14.437Z,7.10
2023-01-31T16:01:49.430Z,7.10
2023-01-31T16:04:16.306Z,7.10
2023-01-31T16:06:43.172Z,7.20
2023-01-31T16:09:25.048Z,7.20
2023-01-31T16:11:52.950Z,7.20
2023-01-31T16:14:21.774Z,7.20
2023-01-31T16:16:51.553Z,7.20
2023-01-31T16:19:25.787Z,7.20
2023-01-31T16:21:53.702Z,7.20
2023-01-31T16:24:22.645Z,7.30
2023-01-31T16:26:58.425Z,7.20
2023-01-31T16:29:47.047Z,7.30
2023-01-31T16:32:27.144Z,7.30
2023-01-31T16:35:00.033Z,7.30
2023-01-31T16:37:41.800Z,7.30
2023-01-31T16:40:09.004Z,7.30
2023-01-31T16:42:38.689Z,7.40
2023-01-31T16:45:35.071Z,7.40
2023-01-31T16:48:32.454Z,7.40
2023-01-31T16:51:20.082Z,7.40
2023-01-31T16:54:18.955Z,7.40
2023-01-31T16:57:06.787Z,7.40
2023-01-31T16:59:33.607Z,7.40
2023-01-31T17:02:13.379Z,7.40
2023-01-31T17:04:41.375Z,7.40
2023-01-31T17:07:17.569Z,7.40
2023-01-31T17:09:45.513Z,7.40
2023-01-31T17:12:25.251Z,7.40
2023-01-31T17:15:01.553Z,7.40
2023-01-31T17:17:35.031Z,7.40
2023-01-31T17:20:01.945Z,7.40
2023-01-31T17:22:28.976Z,7.50
2023-01-31T17:24:56.032Z,7.50
2023-01-31T17:27:23.276Z,7.50
2023-01-31T17:29:50.108Z,7.50
2023-01-31T17:32:20.348Z,7.50
2023-01-31T17:34:50.963Z,7.50
2023-01-31T17:37:30.130Z,7.50
2023-01-31T17:39:58.360Z,7.60
2023-01-31T17:42:25.165Z,7.70
2023-01-31T17:44:51.895Z,7.70
2023-01-31T17:47:18.740Z,7.80
2023-01-31T17:49:45.625Z,7.80
2023-01-31T17:52:12.615Z,7.70
2023-01-31T17:54:39.449Z,7.70
2023-01-31T17:57:06.270Z,7.70
2023-01-31T17:59:33.188Z,7.60
2023-01-31T18:02:00.624Z,7.60
2023-01-31T18:04:27.711Z,7.60
2023-01-31T18:06:54.842Z,7.60
2023-01-31T18:09:21.795Z,7.60
2023-01-31T18:11:48.803Z,7.60
2023-01-31T18:14:15.670Z,7.60
2023-01-31T18:16:42.624Z,7.50
2023-01-31T18:19:11.580Z,7.50
2023-01-31T18:21:43.890Z,7.50
2023-01-31T18:24:13.785Z,7.50
2023-01-31T18:26:40.749Z,7.50
2023-01-31T18:29:07.576Z,7.50
2023-01-31T18:31:34.538Z,7.40
2023-01-31T18:34:01.505Z,7.40
2023-01-31T18:36:28.323Z,7.30
2023-01-31T18:38:55.147Z,7.30
2023-01-31T18:41:22.017Z,7.30
2023-01-31T18:43:49.622Z,7.40
2023-01-31T18:46:17.213Z,7.40
2023-01-31T18:48:44.381Z,7.30
2023-01-31T18:51:13.332Z,7.30
2023-01-31T18:53:45.068Z,7.30
2023-01-31T18:56:15.233Z,7.30
2023-01-31T18:58:44.546Z,7.30
2023-01-31T19:01:19.704Z,7.30
2023-01-31T19:03:50.075Z,7.30
2023-01-31T19:06:20.454Z,7.20
2023-01-31T19:08:49.180Z,7.20
2023-01-31T19:11:17.130Z,7.20
2023-01-31T19:13:44.410Z,7.20
2023-01-31T19:16:26.615Z,7.10
2023-01-31T19:18:54.863Z,7.10
2023-01-31T19:21:27.590Z,7.00
2023-01-31T19:24:01.668Z,7.00
2023-01-31T19:26:29.925Z,7.00
2023-01-31T19:28:58.707Z,7.00
2023-01-31T19:31:28.045Z,7.00
2023-01-31T19:33:56.982Z,6.90
2023-01-31T19:36:32.715Z,6.90
2023-01-31T19:39:01.505Z,6.90
2023-01-31T19:41:28.957Z,6.90
2023-01-31T19:43:58.108Z,6.90
2023-01-31T19:46:27.497Z,6.90
2023-01-31T19:48:56.558Z,6.90
2023-01-31T19:51:25.164Z,6.90
2023-01-31T19:53:55.427Z,7.00
2023-01-31T19:56:24.329Z,7.00
2023-01-31T19:58:51.450Z,6.90
2023-01-31T20:01:18.836Z,7.00
2023-01-31T20:03:52.281Z,6.90
2023-01-31T20:06:21.767Z,6.90
2023-01-31T20:08:57.508Z,6.80
2023-01-31T20:11:25.587Z,6.90
2023-01-31T20:13:53.921Z,6.90
2023-01-31T20:16:21.916Z,6.90
2023-01-31T20:18:48.929Z,6.80
2023-01-31T20:21:18.955Z,6.80
2023-01-31T20:23:46.093Z,6.80
2023-01-31T20:26:14.825Z,6.70
2023-01-31T20:28:43.454Z,6.70
2023-01-31T20:31:18.303Z,6.70
2023-01-31T20:33:45.313Z,6.70
2023-01-31T20:36:12.722Z,6.70
2023-01-31T20:38:40.398Z,6.70
2023-01-31T20:41:08.720Z,6.70
2023-01-31T20:43:36.069Z,6.70
2023-01-31T20:46:08.178Z,6.70
2023-01-31T20:48:35.228Z,6.70
2023-01-31T20:51:02.106Z,6.70
2023-01-31T20:53:29.626Z,6.70
2023-01-31T20:56:02.912Z,6.60
2023-01-31T20:58:32.304Z,6.60
2023-01-31T21:01:00.205Z,6.60
2023-01-31T21:03:27.821Z,6.60
2023-01-31T21:05:56.857Z,6.60
2023-01-31T21:08:23.688Z,6.60
2023-01-31T21:10:52.110Z,6.60
2023-01-31T21:13:19.822Z,6.60
2023-01-31T21:15:54.922Z,6.50
2023-01-31T21:18:25.039Z,6.50
2023-01-31T21:20:52.141Z,6.50
2023-01-31T21:23:18.938Z,6.50
2023-01-31T21:25:45.993Z,6.50
2023-01-31T21:28:12.837Z,6.50
2023-01-31T21:30:40.268Z,6.40
2023-01-31T21:33:07.176Z,6.40
2023-01-31T21:35:34.195Z,6.40
